Time;durP1;ratioP1;P1;durP2;ratioP2;P2;SDS_P1;SDS_P2;PMS_P1;PMS_P2;Temp;Humidity;BMP_temperature;BMP_pressure;BME280_temperature;BME280_humidity;BME280_pressure;Samples;Min_cycle;Max_cycle;Signal;HPM_P1;HPM_P2
2021/03/06 00:00:10;;;;;;;7.13;3.55;;;3.50;52.40;;;;;;5035175;28;20053;-69
2021/03/06 00:02:36;;;;;;;7.43;3.40;;;3.50;52.50;;;;;;5035289;28;20021;-68
2021/03/06 00:05:02;;;;;;;8.35;3.47;;;3.50;53.00;;;;;;5034949;28;20403;-68
2021/03/06 00:07:28;;;;;;;16.20;8.40;;;3.50;52.40;;;;;;5035166;28;20021;-68
2021/03/06 00:09:54;;;;;;;10.65;6.05;;;3.40;52.40;;;;;;5034738;28;20037;-68
2021/03/06 00:12:20;;;;;;;8.02;3.92;;;3.40;52.40;;;;;;5034876;28;20497;-68
2021/03/06 00:14:46;;;;;;;6.47;3.90;;;3.40;52.50;;;;;;5017781;28;20029;-69
2021/03/06 00:17:12;;;;;;;8.07;3.47;;;3.40;52.50;;;;;;5014989;28;20033;-69
2021/03/06 00:19:38;;;;;;;7.43;4.25;;;3.40;52.50;;;;;;5023789;28;20029;-69
2021/03/06 00:22:04;;;;;;;8.75;4.53;;;3.30;52.50;;;;;;5035033;28;20025;-69
2021/03/06 00:24:30;;;;;;;11.57;5.05;;;3.30;52.50;;;;;;5034886;28;20081;-69
2021/03/06 00:26:57;;;;;;;11.68;5.03;;;3.30;52.70;;;;;;5033999;28;20025;-70
2021/03/06 00:29:23;;;;;;;9.55;4.22;;;3.30;52.70;;;;;;5034696;28;20479;-68
2021/03/06 00:31:49;;;;;;;8.40;4.05;;;3.20;52.70;;;;;;5034784;28;20502;-69
2021/03/06 00:34:14;;;;;;;9.55;4.70;;;3.20;52.70;;;;;;5034225;28;20041;-68
2021/03/06 00:36:40;;;;;;;8.82;4.03;;;3.20;53.00;;;;;;5034380;28;20033;-68
2021/03/06 00:39:07;;;;;;;8.15;4.07;;;3.20;53.10;;;;;;5034492;28;20030;-68
2021/03/06 00:41:33;;;;;;;6.00;3.30;;;3.20;53.30;;;;;;5034411;28;20080;-69
2021/03/06 00:43:59;;;;;;;5.95;3.60;;;3.20;53.20;;;;;;5034292;28;20034;-68
2021/03/06 00:46:25;;;;;;;5.22;3.20;;;3.10;53.30;;;;;;5034419;28;20022;-68
2021/03/06 00:48:51;;;;;;;7.15;2.97;;;3.10;53.50;;;;;;5034354;28;20021;-68
2021/03/06 00:51:18;;;;;;;7.57;3.67;;;3.10;53.50;;;;;;5032793;28;20387;-68
2021/03/06 00:53:43;;;;;;;7.95;3.58;;;3.10;53.70;;;;;;5034311;28;20104;-68
2021/03/06 00:56:09;;;;;;;5.00;2.97;;;3.10;53.60;;;;;;5034159;28;20104;-69
2021/03/06 00:58:35;;;;;;;6.25;3.10;;;3.00;53.70;;;;;;5033903;28;20127;-70
2021/03/06 01:01:03;;;;;;;6.85;3.28;;;3.00;53.70;;;;;;5034083;28;20053;-69
2021/03/06 01:03:29;;;;;;;7.30;3.50;;;3.00;53.70;;;;;;5033869;28;20035;-68
2021/03/06 01:05:54;;;;;;;6.78;3.03;;;3.00;53.70;;;;;;5033929;28;20025;-70
2021/03/06 01:08:20;;;;;;;9.73;3.28;;;3.00;53.70;;;;;;5033786;28;20386;-70
2021/03/06 01:10:46;;;;;;;5.60;3.28;;;3.00;53.70;;;;;;5034078;28;20025;-70
2021/03/06 01:13:13;;;;;;;8.10;3.42;;;2.90;53.70;;;;;;5033924;28;20533;-70
2021/03/06 01:15:39;;;;;;;11.20;3.28;;;2.90;53.70;;;;;;5027876;28;20399;-67
2021/03/06 01:18:06;;;;;;;5.00;3.10;;;2.90;53.70;;;;;;5014294;28;20025;-67
2021/03/06 01:20:32;;;;;;;6.35;3.28;;;2.90;53.70;;;;;;5033769;28;20060;-67
2021/03/06 01:22:58;;;;;;;6.75;4.55;;;2.90;53.90;;;;;;5033791;28;20075;-70
2021/03/06 01:25:24;;;;;;;6.60;4.60;;;2.90;54.00;;;;;;5033735;28;20029;-67
2021/03/06 01:27:50;;;;;;;7.05;3.95;;;2.80;53.90;;;;;;5033667;28;20025;-68
2021/03/06 01:30:17;;;;;;;5.30;2.88;;;2.80;53.90;;;;;;5033464;28;20037;-68
2021/03/06 01:32:43;;;;;;;5.45;2.75;;;2.80;54.00;;;;;;5033674;28;20104;-68
2021/03/06 01:35:11;;;;;;;5.13;3.10;;;2.80;54.00;;;;;;5033296;28;20116;-68
2021/03/06 01:37:38;;;;;;;7.18;3.92;;;2.80;54.00;;;;;;5033574;28;20479;-70
2021/03/06 01:40:19;;;;;;;8.05;3.65;;;2.80;54.00;;;;;;5033328;28;20091;-69
2021/03/06 01:42:45;;;;;;;5.65;2.70;;;2.70;54.10;;;;;;5033495;28;20091;-69
2021/03/06 01:45:11;;;;;;;3.83;2.47;;;2.70;53.90;;;;;;5033263;28;20470;-68
2021/03/06 01:47:37;;;;;;;3.65;2.65;;;2.70;53.80;;;;;;5033429;28;20049;-70
2021/03/06 01:50:05;;;;;;;7.22;3.03;;;2.60;53.80;;;;;;5033135;28;20022;-70
2021/03/06 01:52:31;;;;;;;5.65;3.20;;;2.60;53.90;;;;;;5033288;28;20021;-69
2021/03/06 01:54:57;;;;;;;6.97;3.65;;;2.60;54.00;;;;;;5033343;28;20048;-69
2021/03/06 01:57:25;;;;;;;6.22;2.65;;;2.60;54.10;;;;;;5033195;28;20029;-70
2021/03/06 01:59:51;;;;;;;7.93;3.58;;;2.60;54.20;;;;;;5030686;28;20045;-69
2021/03/06 02:02:18;;;;;;;6.75;2.65;;;2.50;54.30;;;;;;5032699;28;20550;-69
2021/03/06 02:04:44;;;;;;;6.65;2.83;;;2.60;54.30;;;;;;5032499;28;20037;-69
2021/03/06 02:07:10;;;;;;;7.95;3.55;;;2.60;54.30;;;;;;5033300;28;20025;-69
2021/03/06 02:09:35;;;;;;;5.40;3.35;;;2.50;54.40;;;;;;5032639;28;20101;-69
2021/03/06 02:12:41;;;;;;;6.72;3.15;;;2.50;54.50;;;;;;5033027;28;20032;-69
2021/03/06 02:15:15;;;;;;;7.40;3.20;;;2.50;54.70;;;;;;5032347;28;20037;-69
2021/03/06 02:17:40;;;;;;;4.68;2.72;;;2.50;54.60;;;;;;5032313;28;20038;-69
2021/03/06 02:20:33;;;;;;;7.75;3.75;;;2.50;54.60;;;;;;5032579;28;20496;-69
2021/03/06 02:23:05;;;;;;;6.90;2.78;;;2.40;54.80;;;;;;5032322;28;20037;-69
2021/03/06 02:25:52;;;;;;;5.60;3.08;;;2.40;54.90;;;;;;5032506;28;20470;-67
2021/03/06 02:28:54;;;;;;;5.10;3.10;;;2.40;54.90;;;;;;5033660;28;20028;-69
2021/03/06 02:31:22;;;;;;;9.57;4.45;;;2.40;54.90;;;;;;5032090;28;20021;-69
2021/03/06 02:34:05;;;;;;;51.78;20.15;;;2.40;54.90;;;;;;5032077;28;20479;-69
2021/03/06 02:36:34;;;;;;;61.22;21.83;;;2.30;54.90;;;;;;5032533;28;20100;-69
2021/03/06 02:39:02;;;;;;;45.67;16.45;;;2.30;54.90;;;;;;5032474;28;20030;-69
2021/03/06 02:41:31;;;;;;;10.35;4.90;;;2.30;54.90;;;;;;5032240;28;20475;-69
2021/03/06 02:43:58;;;;;;;6.97;3.22;;;2.30;55.00;;;;;;5030963;28;20391;-68
2021/03/06 02:46:25;;;;;;;6.65;3.72;;;2.30;55.10;;;;;;5032324;28;20124;-69
2021/03/06 02:48:53;;;;;;;6.18;3.08;;;2.30;55.20;;;;;;5031892;28;20033;-69
2021/03/06 02:51:20;;;;;;;7.20;3.65;;;2.20;55.20;;;;;;5031768;28;20017;-69
2021/03/06 02:53:46;;;;;;;8.65;3.78;;;2.20;55.10;;;;;;5032238;28;20051;-69
2021/03/06 02:56:12;;;;;;;6.93;3.38;;;2.20;55.10;;;;;;5031843;28;20034;-69
2021/03/06 02:58:56;;;;;;;6.78;3.05;;;2.20;55.10;;;;;;5031911;28;20049;-68
2021/03/06 03:01:48;;;;;;;8.52;2.88;;;2.20;55.20;;;;;;5040898;28;20033;-69
2021/03/06 03:04:23;;;;;;;4.22;2.50;;;2.20;55.20;;;;;;5031980;28;20548;-69
2021/03/06 03:06:55;;;;;;;8.07;3.08;;;2.10;55.10;;;;;;5031812;28;20483;-68
2021/03/06 03:09:29;;;;;;;5.80;3.20;;;2.10;55.30;;;;;;5031855;28;20032;-68
2021/03/06 03:12:03;;;;;;;5.68;2.97;;;2.10;55.30;;;;;;5031894;28;20068;-69
2021/03/06 03:14:39;;;;;;;7.80;2.72;;;2.10;55.40;;;;;;5014156;28;20030;-69
2021/03/06 03:17:13;;;;;;;6.90;2.85;;;2.10;55.40;;;;;;5012605;28;20058;-69
2021/03/06 03:20:02;;;;;;;4.10;2.30;;;2.00;55.90;;;;;;5017767;28;20502;-69
2021/03/06 03:22:36;;;;;;;5.78;2.85;;;2.00;55.30;;;;;;5031868;28;20030;-69
2021/03/06 03:25:05;;;;;;;8.73;3.70;;;2.00;55.30;;;;;;5031746;28;20022;-69
2021/03/06 03:27:34;;;;;;;7.32;2.42;;;2.00;55.40;;;;;;5013966;28;20030;-69
2021/03/06 03:30:00;;;;;;;7.13;2.50;;;2.00;55.40;;;;;;5031797;28;20479;-69
2021/03/06 03:32:28;;;;;;;3.55;2.17;;;2.00;55.40;;;;;;5031763;28;20064;-69
2021/03/06 03:34:56;;;;;;;5.15;2.63;;;2.00;55.50;;;;;;5031492;28;20083;-69
2021/03/06 03:37:23;;;;;;;8.35;3.70;;;2.00;55.60;;;;;;5013929;28;20068;-69
2021/03/06 03:39:49;;;;;;;4.88;2.65;;;2.00;55.70;;;;;;5031431;28;20088;-68
2021/03/06 03:42:17;;;;;;;5.60;2.75;;;2.00;55.70;;;;;;5031392;28;20052;-70
2021/03/06 03:44:42;;;;;;;5.28;2.60;;;1.90;55.70;;;;;;5031542;28;20022;-67
2021/03/06 03:47:08;;;;;;;6.45;2.42;;;1.90;55.70;;;;;;5031619;28;20044;-67
2021/03/06 03:49:34;;;;;;;13.40;2.65;;;1.90;55.70;;;;;;5031428;28;20028;-67
2021/03/06 03:52:01;;;;;;;4.68;2.47;;;1.90;55.70;;;;;;5031300;28;20033;-69
2021/03/06 03:54:27;;;;;;;4.68;2.47;;;1.90;55.70;;;;;;5029883;28;20060;-67
2021/03/06 03:56:53;;;;;;;8.63;2.78;;;1.90;55.70;;;;;;5030284;28;20026;-67
2021/03/06 03:59:19;;;;;;;7.70;4.45;;;1.90;55.80;;;;;;5025109;28;20395;-67
2021/03/06 04:01:46;;;;;;;6.57;4.20;;;1.90;55.90;;;;;;5031066;28;20387;-68
2021/03/06 04:04:26;;;;;;;4.93;3.30;;;1.90;56.00;;;;;;5023682;28;20034;-69
2021/03/06 04:06:52;;;;;;;7.35;3.40;;;1.80;56.00;;;;;;5034476;28;20399;-68
2021/03/06 04:09:18;;;;;;;4.78;2.78;;;1.80;56.70;;;;;;5034674;28;20176;-68
2021/03/06 04:11:44;;;;;;;4.32;2.70;;;1.80;56.10;;;;;;5034993;28;20033;-68
2021/03/06 04:14:10;;;;;;;7.22;3.75;;;1.80;56.10;;;;;;5034407;28;20467;-68
2021/03/06 04:16:36;;;;;;;7.43;3.00;;;1.80;56.10;;;;;;5034569;28;20033;-68
2021/03/06 04:19:02;;;;;;;9.70;3.63;;;1.80;56.10;;;;;;5034649;28;20032;-68
2021/03/06 04:21:29;;;;;;;5.90;2.70;;;1.80;56.40;;;;;;5034453;28;20063;-67
2021/03/06 04:23:54;;;;;;;6.25;2.78;;;1.80;56.60;;;;;;5034854;28;20029;-67
2021/03/06 04:26:20;;;;;;;5.13;2.58;;;1.80;56.60;;;;;;5034476;28;20026;-68
2021/03/06 04:28:46;;;;;;;8.10;2.42;;;1.70;56.50;;;;;;5034438;28;20037;-68
2021/03/06 04:31:12;;;;;;;5.22;2.60;;;1.70;56.40;;;;;;5034261;28;20021;-68
2021/03/06 04:33:38;;;;;;;4.40;2.45;;;1.70;56.40;;;;;;5034179;28;20078;-68
2021/03/06 04:36:04;;;;;;;6.35;2.58;;;1.70;56.40;;;;;;5034142;28;20037;-68
2021/03/06 04:38:30;;;;;;;5.70;2.58;;;1.70;56.40;;;;;;5034521;28;20026;-67
2021/03/06 04:40:55;;;;;;;6.93;2.72;;;1.70;56.30;;;;;;5034338;28;20544;-67
2021/03/06 04:43:21;;;;;;;7.90;3.38;;;1.70;56.30;;;;;;5034147;28;20410;-68
2021/03/06 04:45:47;;;;;;;5.55;2.88;;;1.70;56.30;;;;;;5034226;28;20419;-67
2021/03/06 04:48:13;;;;;;;7.72;2.45;;;1.70;56.40;;;;;;5034404;28;20387;-68
2021/03/06 04:50:39;;;;;;;8.40;3.28;;;1.60;56.40;;;;;;5033738;28;20398;-68
2021/03/06 04:53:05;;;;;;;9.95;3.90;;;1.60;56.30;;;;;;5034354;28;20025;-68
2021/03/06 04:55:30;;;;;;;10.23;4.38;;;1.60;56.30;;;;;;5033776;28;20025;-68
2021/03/06 04:57:56;;;;;;;7.53;3.88;;;1.60;56.40;;;;;;5034081;28;20475;-68
2021/03/06 05:00:22;;;;;;;7.47;3.70;;;1.60;56.40;;;;;;5033851;28;20167;-68
2021/03/06 05:02:48;;;;;;;6.75;3.65;;;1.50;56.40;;;;;;5032992;28;20037;-68
2021/03/06 05:05:14;;;;;;;10.40;3.50;;;1.50;56.40;;;;;;5025092;28;20505;-68
2021/03/06 05:07:40;;;;;;;7.60;3.72;;;1.50;56.40;;;;;;5033696;28;20375;-68
2021/03/06 05:10:06;;;;;;;14.10;3.75;;;1.50;56.60;;;;;;5033462;28;20122;-68
2021/03/06 05:12:32;;;;;;;8.73;4.63;;;1.50;56.80;;;;;;5033591;28;20426;-67
2021/03/06 05:14:58;;;;;;;5.45;3.15;;;1.50;56.60;;;;;;5033620;28;20033;-68
2021/03/06 05:17:24;;;;;;;3.85;2.63;;;1.50;56.60;;;;;;5033813;28;20053;-68
2021/03/06 05:19:49;;;;;;;5.00;2.72;;;1.50;56.60;;;;;;5033499;28;20031;-67
2021/03/06 05:22:15;;;;;;;5.93;3.45;;;1.50;56.50;;;;;;5033498;28;20033;-67
2021/03/06 05:24:41;;;;;;;6.20;2.85;;;1.50;56.50;;;;;;5033152;28;20031;-67
2021/03/06 05:27:07;;;;;;;6.45;3.38;;;1.40;56.40;;;;;;5033682;28;20105;-68
2021/03/06 05:29:34;;;;;;;6.05;3.35;;;1.40;56.50;;;;;;5033619;28;20550;-67
2021/03/06 05:32:03;;;;;;;7.40;3.65;;;1.40;56.50;;;;;;5033397;28;20045;-67
2021/03/06 05:34:29;;;;;;;6.57;3.63;;;1.40;56.60;;;;;;5033106;28;20033;-67
2021/03/06 05:36:55;;;;;;;9.48;3.78;;;1.40;56.60;;;;;;5015591;28;20116;-68
2021/03/06 05:39:21;;;;;;;7.28;3.53;;;1.40;56.60;;;;;;5033133;28;20041;-68
2021/03/06 05:41:47;;;;;;;6.80;3.83;;;1.40;56.60;;;;;;5031999;28;20029;-68
2021/03/06 05:44:13;;;;;;;8.90;4.18;;;1.40;56.60;;;;;;5032937;28;20036;-68
2021/03/06 05:46:41;;;;;;;28.95;11.55;;;1.40;56.60;;;;;;5033030;28;20443;-68
2021/03/06 05:49:07;;;;;;;37.97;16.35;;;1.40;56.70;;;;;;5032770;28;20044;-68
2021/03/06 05:51:35;;;;;;;40.03;16.33;;;1.40;56.80;;;;;;5033093;28;20524;-68
2021/03/06 05:54:07;;;;;;;30.10;13.85;;;1.40;56.80;;;;;;5032912;28;20037;-67
2021/03/06 05:56:38;;;;;;;31.05;15.27;;;1.40;56.90;;;;;;5032962;28;20387;-68
2021/03/06 05:59:05;;;;;;;28.92;13.57;;;1.40;57.00;;;;;;5032449;28;20515;-68
2021/03/06 06:01:32;;;;;;;23.00;10.45;;;1.40;57.10;;;;;;5032646;28;20159;-68
2021/03/06 06:04:01;;;;;;;15.23;7.22;;;1.50;57.20;;;;;;5026659;28;20093;-68
2021/03/06 06:06:29;;;;;;;16.98;8.65;;;1.50;57.20;;;;;;5033168;28;20179;-68
2021/03/06 06:08:58;;;;;;;13.90;7.15;;;1.50;57.20;;;;;;5032167;28;20093;-67
2021/03/06 06:11:25;;;;;;;9.77;5.10;;;1.60;57.30;;;;;;5032981;28;20021;-68
2021/03/06 06:13:50;;;;;;;7.13;3.95;;;1.60;57.20;;;;;;5033340;28;20576;-68
2021/03/06 06:16:17;;;;;;;7.63;4.47;;;1.70;57.20;;;;;;5033403;28;20053;-69
2021/03/06 06:18:44;;;;;;;9.05;4.82;;;1.70;57.20;;;;;;5033310;28;20029;-70
2021/03/06 06:21:35;;;;;;;11.77;5.07;;;1.70;57.10;;;;;;5033116;28;20021;-68
2021/03/06 06:24:08;;;;;;;13.10;4.55;;;1.80;57.20;;;;;;5033159;28;20028;-67
2021/03/06 06:26:35;;;;;;;9.30;3.72;;;1.90;57.30;;;;;;5032797;28;20494;-68
2021/03/06 06:29:01;;;;;;;8.23;3.03;;;1.90;57.30;;;;;;5032965;28;20475;-68
2021/03/06 06:31:26;;;;;;;7.70;3.35;;;2.00;57.30;;;;;;5017005;28;20033;-68
2021/03/06 06:33:53;;;;;;;8.90;4.00;;;2.10;57.50;;;;;;5032935;28;20538;-68
2021/03/06 06:36:32;;;;;;;6.53;3.95;;;2.10;57.70;;;;;;5033164;28;20033;-69
2021/03/06 06:38:58;;;;;;;6.75;3.67;;;2.20;58.00;;;;;;5033256;28;20043;-68
2021/03/06 06:41:24;;;;;;;8.18;4.00;;;2.30;57.90;;;;;;5033360;28;20029;-68
2021/03/06 06:43:50;;;;;;;10.00;4.20;;;2.40;57.90;;;;;;5032830;28;20064;-68
2021/03/06 06:46:29;;;;;;;4.85;3.13;;;2.50;57.90;;;;;;5032778;28;20057;-68
2021/03/06 06:49:00;;;;;;;6.60;3.72;;;2.60;57.90;;;;;;5032889;28;20025;-68
2021/03/06 06:51:26;;;;;;;6.90;2.97;;;2.70;57.80;;;;;;5033007;28;20034;-68
2021/03/06 06:54:13;;;;;;;7.18;3.78;;;2.80;57.80;;;;;;5032715;28;20033;-68
2021/03/06 06:56:40;;;;;;;7.25;3.92;;;2.80;57.80;;;;;;5033052;28;20030;-68
2021/03/06 06:59:10;;;;;;;7.32;4.45;;;2.90;57.70;;;;;;5032216;28;20080;-67
2021/03/06 07:01:37;;;;;;;7.75;4.32;;;3.00;57.70;;;;;;5032770;28;20112;-67
2021/03/06 07:04:07;;;;;;;10.82;4.00;;;3.10;57.70;;;;;;5032321;28;20125;-67
2021/03/06 07:06:35;;;;;;;9.57;4.63;;;3.10;57.50;;;;;;5032916;28;20034;-69
2021/03/06 07:09:18;;;;;;;6.40;4.28;;;3.20;57.30;;;;;;5032734;28;20025;-69
2021/03/06 07:11:44;;;;;;;6.68;4.07;;;3.30;56.90;;;;;;5032604;28;20059;-69
2021/03/06 07:14:10;;;;;;;9.43;4.57;;;3.40;56.70;;;;;;5032526;28;20535;-69
2021/03/06 07:17:00;;;;;;;11.63;4.88;;;3.50;56.40;;;;;;5032836;28;20044;-69
2021/03/06 07:19:30;;;;;;;12.65;4.88;;;3.50;55.80;;;;;;5032358;28;20033;-69
2021/03/06 07:21:58;;;;;;;16.63;5.32;;;3.60;55.70;;;;;;5032742;28;20053;-70
2021/03/06 07:24:25;;;;;;;14.02;4.45;;;3.70;56.30;;;;;;5032394;28;20045;-70
2021/03/06 07:26:54;;;;;;;7.85;4.60;;;3.80;55.60;;;;;;5032766;28;20483;-68
2021/03/06 07:29:21;;;;;;;8.88;4.47;;;3.90;55.50;;;;;;5032513;28;20033;-69
2021/03/06 07:31:50;;;;;;;10.73;4.47;;;3.90;55.40;;;;;;5031028;28;20030;-68
2021/03/06 07:34:18;;;;;;;14.60;6.57;;;4.00;55.20;;;;;;5032135;28;20029;-68
2021/03/06 07:36:46;;;;;;;7.80;4.93;;;4.10;54.80;;;;;;5034354;28;20022;-68
2021/03/06 07:39:14;;;;;;;11.40;5.65;;;4.10;54.60;;;;;;5036170;28;20072;-69
2021/03/06 07:41:50;;;;;;;10.40;6.07;;;4.20;54.50;;;;;;5036553;28;20547;-69
2021/03/06 07:44:21;;;;;;;10.18;5.88;;;4.30;54.30;;;;;;5035112;28;20516;-68
2021/03/06 07:46:48;;;;;;;13.88;7.10;;;4.30;54.30;;;;;;5036290;28;20040;-68
2021/03/06 07:49:16;;;;;;;21.70;7.35;;;4.40;54.10;;;;;;5035910;28;20441;-69
2021/03/06 07:51:44;;;;;;;13.93;7.32;;;4.50;54.00;;;;;;5035918;28;20033;-68
2021/03/06 07:54:13;;;;;;;15.32;7.28;;;4.50;54.00;;;;;;5035963;28;20022;-68
2021/03/06 07:56:39;;;;;;;21.92;8.15;;;4.60;54.10;;;;;;5018483;28;20032;-68
2021/03/06 07:59:05;;;;;;;19.10;7.75;;;4.70;54.10;;;;;;5035502;28;20049;-70
2021/03/06 08:01:33;;;;;;;21.60;9.20;;;4.80;54.20;;;;;;5035632;28;20037;-68
2021/03/06 08:04:00;;;;;;;22.15;10.90;;;4.80;54.00;;;;;;5035782;28;20032;-68
2021/03/06 08:06:27;;;;;;;26.73;10.88;;;4.90;54.00;;;;;;5035320;28;20025;-68
2021/03/06 08:09:11;;;;;;;24.77;11.80;;;4.90;53.80;;;;;;5035549;28;20028;-69
2021/03/06 08:11:43;;;;;;;20.77;9.80;;;5.00;53.60;;;;;;5035871;28;20029;-72
2021/03/06 08:14:31;;;;;;;23.48;10.98;;;5.10;53.80;;;;;;5035525;28;20029;-69
2021/03/06 08:16:57;;;;;;;25.25;12.10;;;5.20;53.70;;;;;;5035267;28;20030;-70
2021/03/06 08:19:25;;;;;;;25.25;11.43;;;5.30;53.60;;;;;;5035708;28;20380;-70
2021/03/06 08:21:56;;;;;;;22.73;11.02;;;5.30;53.20;;;;;;5035735;28;20491;-70
2021/03/06 08:24:29;;;;;;;23.35;10.95;;;5.40;53.10;;;;;;5034792;28;20033;-69
2021/03/06 08:27:04;;;;;;;25.75;11.63;;;5.40;52.80;;;;;;5035474;28;20018;-69
2021/03/06 08:29:56;;;;;;;21.90;10.27;;;5.50;52.70;;;;;;5035623;28;20032;-70
2021/03/06 08:32:25;;;;;;;20.42;10.55;;;5.60;52.50;;;;;;5031324;28;20038;-69
2021/03/06 08:35:21;;;;;;;18.08;9.95;;;5.60;52.40;;;;;;5035570;28;20104;-69
2021/03/06 08:37:49;;;;;;;20.75;10.82;;;5.70;52.50;;;;;;5017373;28;20352;-69
2021/03/06 08:40:17;;;;;;;22.77;11.82;;;5.80;52.50;;;;;;5017668;28;20427;-69
2021/03/06 08:42:46;;;;;;;25.55;12.75;;;5.80;52.20;;;;;;5035375;28;20025;-70
2021/03/06 08:45:16;;;;;;;21.67;11.77;;;5.90;52.00;;;;;;5032613;28;20083;-70
2021/03/06 08:47:45;;;;;;;23.75;12.15;;;5.90;52.10;;;;;;5033109;28;20025;-70
2021/03/06 08:50:16;;;;;;;21.58;11.38;;;6.00;51.90;;;;;;5034146;28;20021;-71
2021/03/06 08:52:59;;;;;;;25.50;12.38;;;6.10;52.00;;;;;;5016337;28;20491;-70
2021/03/06 08:55:31;;;;;;;26.02;13.07;;;6.10;52.00;;;;;;5033629;28;20071;-71
2021/03/06 08:58:21;;;;;;;23.85;13.77;;;6.20;51.30;;;;;;5015350;28;20053;-71
2021/03/06 09:00:50;;;;;;;32.28;13.00;;;6.20;50.80;;;;;;5034032;28;20113;-70
2021/03/06 09:03:25;;;;;;;21.40;12.57;;;6.30;50.50;;;;;;5033026;28;20056;-70
2021/03/06 09:05:57;;;;;;;23.55;11.55;;;6.30;50.20;;;;;;5033858;28;20108;-71
2021/03/06 09:08:24;;;;;;;18.88;10.15;;;6.40;49.90;;;;;;5033603;28;20017;-71
2021/03/06 09:10:51;;;;;;;24.15;9.88;;;6.40;49.80;;;;;;5033905;28;20034;-72
2021/03/06 09:13:19;;;;;;;17.88;8.68;;;6.50;49.40;;;;;;5033604;28;20036;-71
2021/03/06 09:15:46;;;;;;;28.25;12.90;;;6.50;49.80;;;;;;5033519;28;20071;-72
2021/03/06 09:18:15;;;;;;;22.25;11.07;;;6.60;49.70;;;;;;5017398;28;20433;-71
2021/03/06 09:20:51;;;;;;;17.85;9.23;;;6.60;49.50;;;;;;5015893;28;20030;-71
2021/03/06 09:23:37;;;;;;;18.00;9.93;;;6.70;49.10;;;;;;5033817;28;20021;-72
2021/03/06 09:26:12;;;;;;;15.98;8.73;;;6.80;48.70;;;;;;5015799;28;20148;-70
2021/03/06 09:28:38;;;;;;;;;;;6.80;48.10;;;;;;5034123;28;20017;-71
2021/03/06 09:31:21;;;;;;;12.10;7.05;;;6.90;49.10;;;;;;5033232;28;19913;-70
2021/03/06 09:33:49;;;;;;;14.35;8.25;;;7.00;48.00;;;;;;5033502;28;20033;-71
2021/03/06 09:36:20;;;;;;;13.18;6.82;;;7.00;47.60;;;;;;5031915;28;20075;-71
2021/03/06 09:38:55;;;;;;;13.73;6.85;;;7.00;47.00;;;;;;5033314;28;20032;-71
2021/03/06 09:41:39;;;;;;;10.30;6.13;;;7.10;46.60;;;;;;5032028;28;20034;-72
2021/03/06 09:44:09;;;;;;;9.23;5.23;;;7.10;46.10;;;;;;5024863;28;20030;-71
2021/03/06 09:46:38;;;;;;;7.90;4.43;;;7.10;45.70;;;;;;5018485;28;20351;-72
2021/03/06 09:49:14;;;;;;;7.50;4.10;;;7.20;45.20;;;;;;5014893;28;20274;-71
2021/03/06 09:51:46;;;;;;;6.57;3.97;;;7.20;44.20;;;;;;5032999;28;20021;-71
2021/03/06 09:54:16;;;;;;;12.75;5.07;;;7.30;44.10;;;;;;5032988;28;20033;-71
2021/03/06 09:56:51;;;;;;;9.50;4.50;;;7.30;43.00;;;;;;5032982;28;20434;-70
2021/03/06 09:59:21;;;;;;;8.20;3.10;;;7.40;42.60;;;;;;5032700;28;20123;-70
2021/03/06 10:01:50;;;;;;;7.80;3.33;;;7.40;41.80;;;;;;5028675;28;20026;-72
2021/03/06 10:04:23;;;;;;;8.98;4.07;;;7.40;41.10;;;;;;5025892;28;20582;-72
2021/03/06 10:06:53;;;;;;;5.25;3.17;;;7.40;41.50;;;;;;5030466;28;20099;-71
2021/03/06 10:09:25;;;;;;;6.68;2.75;;;7.50;41.60;;;;;;5032292;28;20055;-71
2021/03/06 10:12:03;;;;;;;5.57;3.22;;;7.50;41.20;;;;;;5032944;28;20087;-71
2021/03/06 10:14:33;;;;;;;6.93;3.25;;;7.60;41.60;;;;;;5032786;28;20029;-71
2021/03/06 10:17:05;;;;;;;11.38;5.13;;;7.70;41.60;;;;;;5031354;28;20448;-71
2021/03/06 10:19:51;;;;;;;6.65;4.28;;;7.70;41.20;;;;;;5032888;28;20382;-71
2021/03/06 10:22:21;;;;;;;6.80;4.25;;;7.80;41.40;;;;;;5032426;28;20018;-70
2021/03/06 10:25:04;;;;;;;11.85;4.03;;;7.80;41.70;;;;;;5028924;28;20040;-70
2021/03/06 10:27:46;;;;;;;8.63;4.30;;;7.90;40.90;;;;;;5031640;28;20033;-70
2021/03/06 10:30:16;;;;;;;9.38;4.70;;;7.90;41.00;;;;;;5012922;28;20037;-71
2021/03/06 10:32:52;;;;;;;11.38;5.35;;;8.00;41.30;;;;;;5032244;28;20025;-71
2021/03/06 10:35:37;;;;;;;7.85;3.63;;;8.00;39.80;;;;;;5032322;28;20040;-72
2021/03/06 10:38:08;;;;;;;6.82;3.58;;;8.00;40.00;;;;;;5031936;28;20482;-71
2021/03/06 10:40:57;;;;;;;6.60;3.60;;;8.10;40.40;;;;;;5031030;28;20048;-71
2021/03/06 10:43:34;;;;;;;9.65;4.25;;;8.10;40.50;;;;;;5032016;28;20109;-71
2021/03/06 10:46:10;;;;;;;7.22;3.40;;;8.10;39.80;;;;;;5031758;28;20021;-71
2021/03/06 10:48:37;;;;;;;4.38;2.78;;;8.20;39.80;;;;;;5030902;28;20080;-71
2021/03/06 10:51:03;;;;;;;4.85;2.60;;;8.20;40.00;;;;;;5031740;28;20100;-69
2021/03/06 10:53:31;;;;;;;5.43;2.67;;;8.30;39.90;;;;;;5032041;28;20068;-71
2021/03/06 10:55:57;;;;;;;4.28;2.92;;;8.30;39.90;;;;;;5030842;28;20053;-70
2021/03/06 10:58:45;;;;;;;4.47;3.05;;;8.30;39.30;;;;;;5038109;28;20402;-70
2021/03/06 11:01:16;;;;;;;13.18;7.47;;;8.40;39.40;;;;;;5032135;28;20116;-70
2021/03/06 11:03:50;;;;;;;8.48;4.65;;;8.40;38.90;;;;;;5014351;28;20064;-74
2021/03/06 11:06:18;;;;;;;5.85;3.05;;;8.50;38.90;;;;;;5031840;28;20105;-71
2021/03/06 11:09:03;;;;;;;10.95;4.68;;;8.50;39.50;;;;;;5038844;28;20159;-71
2021/03/06 11:11:28;;;;;;;6.63;3.58;;;8.50;38.70;;;;;;5034250;28;20498;-70
2021/03/06 11:13:54;;;;;;;18.45;7.03;;;8.50;37.90;;;;;;5037904;28;20053;-71
2021/03/06 11:16:40;;;;;;;8.82;4.45;;;8.60;38.30;;;;;;5038468;28;20363;-71
2021/03/06 11:19:07;;;;;;;5.15;2.80;;;8.60;38.00;;;;;;5037882;28;20459;-71
2021/03/06 11:21:34;;;;;;;4.85;2.30;;;8.60;38.10;;;;;;5038134;28;20143;-71
2021/03/06 11:24:00;;;;;;;5.80;3.55;;;8.60;37.80;;;;;;5038242;28;20056;-71
2021/03/06 11:26:26;;;;;;;9.95;4.55;;;8.70;38.20;;;;;;5039179;28;20104;-71
2021/03/06 11:28:54;;;;;;;6.78;3.55;;;8.70;37.80;;;;;;5039286;28;20025;-73
2021/03/06 11:31:20;;;;;;;8.65;4.43;;;8.70;37.30;;;;;;5039340;28;20013;-70
2021/03/06 11:33:46;;;;;;;8.55;4.38;;;8.80;37.40;;;;;;5037739;28;20025;-71
2021/03/06 11:36:12;;;;;;;5.60;3.33;;;8.80;37.90;;;;;;5038671;28;20029;-69
2021/03/06 11:38:38;;;;;;;3.70;2.55;;;8.80;37.60;;;;;;5039085;28;20513;-74
2021/03/06 11:41:04;;;;;;;7.13;3.45;;;8.80;37.90;;;;;;5021343;28;20033;-67
2021/03/06 11:43:29;;;;;;;5.50;3.65;;;8.90;37.10;;;;;;5038692;28;20356;-67
2021/03/06 11:45:55;;;;;;;3.90;2.38;;;8.90;37.00;;;;;;5036437;28;20399;-67
2021/03/06 11:48:21;;;;;;;6.25;3.35;;;9.00;37.20;;;;;;5039149;28;20025;-67
2021/03/06 11:50:49;;;;;;;5.55;3.50;;;9.00;36.40;;;;;;5039180;28;20068;-67
2021/03/06 11:53:15;;;;;;;7.15;4.32;;;9.00;35.90;;;;;;5037727;28;20113;-67
2021/03/06 11:55:41;;;;;;;6.65;3.50;;;9.00;36.50;;;;;;5038951;28;20025;-66
2021/03/06 11:58:08;;;;;;;4.93;2.45;;;9.00;35.50;;;;;;5038772;28;20029;-67
2021/03/06 12:00:35;;;;;;;7.68;3.25;;;9.00;34.90;;;;;;5021349;28;20038;-67
2021/03/06 12:03:03;;;;;;;10.32;4.22;;;9.00;34.80;;;;;;5039032;28;20034;-66
2021/03/06 12:05:28;;;;;;;4.85;2.42;;;9.00;34.50;;;;;;5037615;28;20034;-67
2021/03/06 12:07:54;;;;;;;2.95;1.75;;;9.10;34.30;;;;;;5039055;28;20025;-66
2021/03/06 12:10:24;;;;;;;3.92;2.45;;;9.10;33.90;;;;;;5037704;28;20104;-66
2021/03/06 12:12:50;;;;;;;5.88;3.10;;;9.10;34.00;;;;;;5038740;28;20426;-67
2021/03/06 12:15:17;;;;;;;3.90;2.70;;;9.10;34.20;;;;;;5038905;28;20078;-67
2021/03/06 12:17:45;;;;;;;6.80;4.07;;;9.10;34.80;;;;;;5038810;28;20104;-68
2021/03/06 12:20:13;;;;;;;7.72;3.00;;;9.10;34.40;;;;;;5022109;28;20382;-66
2021/03/06 12:22:39;;;;;;;4.90;2.50;;;9.20;34.10;;;;;;5036705;28;20038;-66
2021/03/06 12:25:07;;;;;;;3.22;2.40;;;9.20;34.70;;;;;;5035870;28;20078;-66
2021/03/06 12:27:33;;;;;;;5.68;3.25;;;9.30;34.10;;;;;;5035843;28;20032;-66
2021/03/06 12:29:59;;;;;;;4.43;3.40;;;9.20;34.30;;;;;;5035788;28;20490;-66
2021/03/06 12:32:25;;;;;;;5.88;3.38;;;9.30;35.10;;;;;;5035685;28;20033;-66
2021/03/06 12:34:51;;;;;;;11.82;2.60;;;9.30;35.20;;;;;;5035652;28;20029;-66
2021/03/06 12:37:17;;;;;;;7.22;3.80;;;9.30;35.10;;;;;;5035555;28;20034;-66
2021/03/06 12:39:43;;;;;;;8.30;4.40;;;9.30;35.30;;;;;;5035359;28;20030;-66
2021/03/06 12:42:09;;;;;;;8.52;3.95;;;9.40;35.00;;;;;;5035300;28;20060;-66
2021/03/06 12:44:35;;;;;;;5.95;2.97;;;9.40;35.10;;;;;;5035156;28;20101;-67
2021/03/06 12:47:00;;;;;;;5.05;2.88;;;9.40;35.00;;;;;;5035367;28;20121;-66
2021/03/06 12:49:26;;;;;;;5.60;3.15;;;9.50;34.80;;;;;;5035233;28;20021;-67
2021/03/06 12:51:53;;;;;;;5.22;3.35;;;9.50;34.80;;;;;;5035064;28;20029;-67
2021/03/06 12:54:18;;;;;;;5.90;3.38;;;9.50;35.00;;;;;;5035016;28;20025;-67
2021/03/06 12:56:44;;;;;;;7.47;3.50;;;9.50;35.00;;;;;;5034997;28;20416;-67
2021/03/06 12:59:10;;;;;;;5.35;3.65;;;9.50;34.90;;;;;;5034874;28;20049;-67
2021/03/06 13:01:36;;;;;;;5.38;3.15;;;9.50;34.40;;;;;;5034984;28;20029;-66
2021/03/06 13:04:02;;;;;;;5.00;3.03;;;9.50;34.20;;;;;;5034854;28;20523;-66